| time (UTC) | temp F | wind direction | speed knots | gust knots | rain 1hr in | rain 24hr in | rain mn in | humidity % | barometer mb |
| 20260904131502 | 78 | 252 | 5.2 | 9.6 | 0.00 | 0.01 | 0.01 | 18 | 988.8 |
| 20260904130055 | 78 | 250 | 3.5 | 7.0 | 0.00 | 0.01 | 0.01 | 19 | 988.9 |
| 20260904124547 | 78 | 242 | 5.2 | 9.6 | 0.01 | 0.01 | 0.01 | 20 | 988.8 |
| 20260904123049 | 78 | 244 | 4.3 | 8.7 | 0.01 | 0.01 | 0.01 | 21 | 988.7 |
| 20260904121544 | 78 | 240 | 7.0 | 10.4 | 0.01 | 0.01 | 0.01 | 22 | 988.4 |
| 20260904120047 | 78 | 242 | 7.0 | 9.6 | 0.01 | 0.01 | 0.01 | 25 | 988.3 |
| 20260904114538 | 78 | 236 | 4.3 | 7.0 | 0.00 | 0.00 | 0.00 | 30 | 988.4 |
| 20260904113036 | 78 | 218 | 4.3 | 7.8 | 0.00 | 0.00 | 0.00 | 34 | 988.3 |
| 20260904111532 | 79 | 181 | 5.2 | 7.8 | 0.00 | 0.00 | 0.00 | 40 | 988.3 |
| 20260904110017 | 79 | 168 | 7.0 | 7.8 | 0.00 | 0.00 | 0.00 | 43 | 988.2 |
| 20260904104515 | 79 | 184 | 6.1 | 7.8 | 0.00 | 0.00 | 0.00 | 44 | 988.1 |
| 20260904103012 | 79 | 186 | 4.3 | 8.7 | 0.00 | 0.00 | 0.00 | 44 | 988.0 |
| 20260904101517 | 79 | 193 | 6.1 | 8.7 | 0.00 | 0.00 | 0.00 | 45 | 987.9 |
| 20260904100010 | 79 | 175 | 5.2 | 9.6 | 0.00 | 0.00 | 0.00 | 46 | 987.9 |
| 20260904094508 | 79 | 184 | 5.2 | 7.8 | 0.00 | 0.00 | 0.00 | 47 | 987.8 |
| 20260904093007 | 79 | 183 | 5.2 | 7.8 | 0.00 | 0.00 | 0.00 | 47 | 987.6 |
| 20260904091505 | 79 | 190 | 4.3 | 7.0 | 0.00 | 0.00 | 0.00 | 47 | 987.6 |
| 20260904090051 | 79 | 186 | 5.2 | 8.7 | 0.00 | 0.00 | 0.00 | 46 | 987.7 |
| 20260904084557 | 79 | 202 | 5.2 | 7.0 | 0.00 | 0.00 | 0.00 | 47 | 987.7 |
| 20260904083052 | 79 | 202 | 3.5 | 6.1 | 0.00 | 0.00 | 0.00 | 48 | 987.7 |
| 20260904081547 | 79 | 196 | 3.5 | 6.1 | 0.00 | 0.00 | 0.00 | 50 | 987.9 |
| 20260904080105 | 79 | 197 | 4.3 | 8.7 | 0.00 | 0.00 | 0.00 | 53 | 987.9 |
| 20260904074545 | 80 | 194 | 7.0 | 10.4 | 0.00 | 0.00 | 0.00 | 56 | 987.7 |
| 20260904073045 | 80 | 217 | 7.0 | 12.2 | 0.00 | 0.00 | 0.00 | 57 | 987.7 |
| 20260904071544 | 80 | 213 | 7.8 | 10.4 | 0.00 | 0.00 | 0.00 | 57 | 987.9 |
| 20260904070050 | 80 | 213 | 7.0 | 9.6 | 0.00 | 0.00 | 0.00 | 57 | 988.0 |
| 20260904064527 | 80 | 206 | 7.0 | 12.2 | 0.00 | 0.00 | 0.00 | 57 | 988.0 |
| 20260904063028 | 80 | 205 | 7.0 | 13.0 | 0.00 | 0.00 | 0.00 | 58 | 988.0 |
| 20260904061507 | 80 | 202 | 9.6 | 13.0 | 0.00 | 0.00 | 0.00 | 59 | 987.9 |
| 20260904060009 | 80 | 196 | 8.7 | 11.3 | 0.00 | 0.00 | 0.00 | 59 | 988.0 |
| 20260904054553 | 80 | 194 | 7.8 | 12.2 | 0.00 | 0.00 | 0.00 | 60 | 987.9 |
| 20260904053058 | 80 | 209 | 7.8 | 13.0 | 0.00 | 0.00 | 0.00 | 61 | 987.9 |
| 20260904051530 | 80 | 198 | 7.8 | 13.0 | 0.00 | 0.00 | 0.00 | 61 | 987.9 |
| 20260904050029 | 81 | 197 | 7.8 | 14.8 | 0.00 | 0.00 | 0.00 | 63 | 987.8 |
| 20260904044516 | 81 | 180 | 9.6 | 13.0 | 0.00 | 0.00 | 0.00 | 64 | 987.8 |
| 20260904043016 | 81 | 182 | 7.8 | 11.3 | 0.00 | 0.00 | 0.00 | 65 | 987.7 |
| 20260904041515 | 81 | 200 | 7.8 | 12.2 | 0.00 | 0.00 | 0.00 | 66 | 987.7 |
| 20260904040015 | 81 | 190 | 8.7 | 11.3 | 0.00 | 0.00 | 0.00 | 67 | 987.7 |
| 20260904034513 | 81 | 177 | 7.8 | 12.2 | 0.00 | 0.00 | 0.00 | 67 | 987.7 |
| 20260904033022 | 81 | 177 | 11.3 | 13.9 | 0.00 | 0.00 | 0.00 | 68 | 987.6 |
| 20260904031512 | 81 | 173 | 8.7 | 12.2 | 0.00 | 0.00 | 0.00 | 69 | 987.5 |
| 20260904030012 | 81 | 178 | 7.8 | 13.0 | 0.00 | 0.00 | 0.00 | 69 | 987.5 |
| 20260904024558 | 82 | 169 | 8.7 | 10.4 | 0.00 | 0.00 | 0.00 | 69 | 987.4 |
| 20260904023054 | 82 | 175 | 8.7 | 11.3 | 0.00 | 0.00 | 0.00 | 68 | 987.2 |
| 20260904021554 | 82 | 182 | 7.0 | 10.4 | 0.00 | 0.00 | 0.00 | 68 | 987.1 |
| 20260904020043 | 83 | 182 | 7.8 | 11.3 | 0.00 | 0.00 | 0.00 | 67 | 986.8 |
| 20260904014545 | 83 | 175 | 8.7 | 12.2 | 0.00 | 0.00 | 0.00 | 66 | 986.6 |
| 20260904013041 | 84 | 188 | 7.8 | 10.4 | 0.00 | 0.00 | 0.00 | 66 | 986.6 |
| 20260904011546 | 84 | 165 | 7.8 | 13.0 | 0.00 | 0.00 | 0.00 | 65 | 986.5 |
| 20260904010038 | 84 | 171 | 9.6 | 14.8 | 0.00 | 0.00 | 0.00 | 65 | 986.3 |
| 20260904004539 | 85 | 168 | 12.2 | 15.6 | 0.00 | 0.00 | 0.00 | 65 | 986.3 |
| 20260904003037 | 86 | 153 | 11.3 | 17.4 | 0.00 | 0.00 | 0.00 | 65 | 986.3 |
| 20260904001517 | 87 | 146 | 11.3 | 17.4 | 0.00 | 0.00 | 0.00 | 64 | 986.2 |
| 20260904000017 | 87 | 144 | 10.4 | 17.4 | 0.00 | 0.00 | 0.00 | 64 | 986.2 |
| 20260903234558 | 88 | 150 | 10.4 | 16.5 | 0.00 | 0.00 | 0.00 | 64 | 985.9 |
| 20260903233058 | 88 | 186 | 15.6 | 21.7 | 0.00 | 0.00 | 0.00 | 62 | 985.9 |
| 20260903231546 | 89 | 166 | 15.6 | 21.7 | 0.00 | 0.00 | 0.00 | 60 | 985.8 |
| 20260903230039 | 89 | 177 | 17.4 | 22.6 | 0.00 | 0.00 | 0.00 | 60 | 985.6 |
| 20260903224523 | 90 | 148 | 14.8 | 20.0 | 0.00 | 0.00 | 0.00 | 65 | 985.6 |
| 20260903223022 | 90 | 150 | 13.0 | 20.9 | 0.00 | 0.00 | 0.00 | 65 | 985.5 |
| 20260903221509 | 91 | 136 | 13.9 | 21.7 | 0.00 | 0.00 | 0.00 | 64 | 985.5 |
| 20260903220007 | 91 | 144 | 16.5 | 20.0 | 0.00 | 0.00 | 0.00 | 62 | 985.5 |
| 20260903214506 | 91 | 146 | 12.2 | 18.2 | 0.00 | 0.00 | 0.00 | 62 | 985.5 |
| 20260903213104 | 90 | 130 | 12.2 | 17.4 | 0.00 | 0.00 | 0.00 | 63 | 985.8 |
| 20260903211504 | 91 | 145 | 13.0 | 20.0 | 0.00 | 0.00 | 0.00 | 63 | 985.8 |
| 20260903210003 | 92 | 146 | 10.4 | 16.5 | 0.00 | 0.00 | 0.00 | 62 | 985.9 |
| 20260903204606 | 92 | 165 | 12.2 | 17.4 | 0.00 | 0.00 | 0.00 | 62 | 986.0 |
| 20260903203056 | 91 | 146 | 12.2 | 17.4 | 0.00 | 0.00 | 0.00 | 62 | 986.4 |
| 20260903201536 | 92 | 122 | 7.8 | 16.5 | 0.00 | 0.00 | 0.00 | 60 | 986.7 |
| 20260903200035 | 92 | 137 | 7.0 | 13.0 | 0.00 | 0.00 | 0.00 | 58 | 986.7 |
| 20260903194514 | 92 | 134 | 6.1 | 11.3 | 0.00 | 0.00 | 0.00 | 57 | 986.9 |
| 20260903193016 | 91 | 169 | 6.1 | 12.2 | 0.00 | 0.00 | 0.00 | 59 | 987.0 |
| 20260903191603 | 91 | 157 | 6.1 | 13.0 | 0.00 | 0.00 | 0.00 | 59 | 987.3 |
| 20260903190055 | 90 | 165 | 9.6 | 11.3 | 0.00 | 0.00 | 0.00 | 60 | 987.6 |
| 20260903184558 | 90 | 134 | 6.1 | 9.6 | 0.00 | 0.00 | 0.00 | 62 | 987.8 |
| 20260903183056 | 89 | 133 | 7.0 | 10.4 | 0.00 | 0.00 | 0.00 | 62 | 987.9 |
| 20260903181550 | 89 | 165 | 5.2 | 8.7 | 0.00 | 0.00 | 0.00 | 61 | 988.0 |
| 20260903180048 | 89 | 186 | 7.0 | 9.6 | 0.00 | 0.00 | 0.00 | 62 | 988.3 |
| 20260903174547 | 88 | 178 | 6.1 | 9.6 | 0.00 | 0.00 | 0.00 | 64 | 988.5 |
| 20260903173045 | 88 | 173 | 8.7 | 11.3 | 0.00 | 0.00 | 0.00 | 64 | 988.6 |
| 20260903171531 | 88 | 182 | 7.8 | 10.4 | 0.00 | 0.00 | 0.00 | 64 | 988.8 |
| 20260903170040 | 88 | 157 | 7.0 | 10.4 | 0.00 | 0.00 | 0.00 | 64 | 988.8 |
| 20260903164531 | 87 | 191 | 5.2 | 8.7 | 0.00 | 0.00 | 0.00 | 64 | 989.0 |
| 20260903163036 | 87 | 178 | 6.1 | 8.7 | 0.00 | 0.00 | 0.00 | 64 | 989.1 |
| 20260903161525 | 87 | 213 | 5.2 | 8.7 | 0.00 | 0.00 | 0.00 | 65 | 988.9 |
| 20260903160023 | 87 | 223 | 7.0 | 14.8 | 0.00 | 0.00 | 0.00 | 65 | 988.6 |
| 20260903154520 | 86 | 218 | 7.8 | 13.9 | 0.00 | 0.00 | 0.00 | 66 | 988.3 |
| 20260903153017 | 86 | 220 | 8.7 | 15.6 | 0.00 | 0.00 | 0.00 | 67 | 988.1 |
| 20260903151608 | 85 | 242 | 13.0 | 16.5 | 0.00 | 0.00 | 0.00 | 67 | 988.1 |
| 20260903150101 | 84 | 204 | 9.6 | 13.9 | 0.00 | 0.00 | 0.00 | 67 | 988.1 |
| 20260903144538 | 84 | 227 | 13.9 | 19.1 | 0.00 | 0.00 | 0.00 | 66 | 988.0 |
| 20260903143038 | 83 | 221 | 9.6 | 14.8 | 0.00 | 0.00 | 0.00 | 63 | 988.0 |
| 20260903141533 | 82 | 223 | 10.4 | 14.8 | 0.00 | 0.00 | 0.00 | 61 | 988.0 |
| 20260903140029 | 82 | 247 | 8.7 | 13.9 | 0.00 | 0.00 | 0.00 | 59 | 988.1 |
| 20260903134528 | 82 | 219 | 7.8 | 13.9 | 0.00 | 0.00 | 0.00 | 57 | 988.1 |
| 20260903133026 | 81 | 232 | 10.4 | 15.6 | 0.00 | 0.00 | 0.00 | 56 | 988.2 |